Aeroporto :
LOGIN :

Iscrizione | Disclaimer

   EN    FR    IT 

 










Sommario :    VFR   VFR Marginale   IFR   IFR Intensivo   IFR Molto Intensivo
Visibilità : 
Base nubi : 
>= 8 km
>= 3000ft
5 / 8 km
1000 / 3000 ft
1500m / 5 km
500 / 1000 ft
800 / 1500m
200 / 500 ft
< 800m
< 200 ft
Simboli :   Temporali  Nebbia  Neve Forte  Precipitazioni Forti  Vento > 20 kt
SIGMETs :   Varie  Temporali  Ghiacco  Turbolenza  Onda orograficha  Ceneri Vulcaniche







- Altitudine del aeroporto : 364 ft
- Codice IATA : FRA


EDDF - Frankfurt Int.

ULTIMO METAR :
  • 191550Z 10009G19KT 040V160 CAVOK 24/M01 Q1026 NOSIG

METARs OBSOLETI :
  • 191520Z 10009KT 010V150 CAVOK 24/M01 Q1026 NOSIG
  • 191450Z 11009KT 080V140 CAVOK 24/M01 Q1026 NOSIG
  • 191420Z 09010KT 060V120 CAVOK 24/00 Q1026 NOSIG
  • 191350Z 11012KT CAVOK 23/01 Q1027 NOSIG
  • 191320Z 09010KT 050V120 CAVOK 23/02 Q1027 NOSIG

TAF TAF EDDF
Valido dal 19 a 12 ore il 20 a 18 ore UTC


191100Z 1912/2018 09009KT CAVOK
BECMG 1917/1919 03005KT
BECMG 2009/2012 05010KT
Nessun NOTAM noto per questo aeroporto.



MetMap, La meteo Aeronautica in un colpo d'occhio ! - Copyright ORBIFLY Dicembre 2007 - Disclaimer

ORBIFLY MET'MAP TEAM :

Programmazione e sviluppo : Alexandra Zaïnal
Concezione e sviluppo : Baudouin d'Aumeries
Co-Programmazione e sviluppo : Marc-Olivier Méhu
Supporto tecnico e logistico : Manuel Goepfert
Aiuto per la traduzione : Arnaldo La Scala

Contatto : metmap@orbifly.com




FONTI E CREDITI :

   NOAA